Time;durP1;ratioP1;P1;durP2;ratioP2;P2;SDS_P1;SDS_P2;PMS_P1;PMS_P2;Temp;Humidity;BMP_temperature;BMP_pressure;BME280_temperature;BME280_humidity;BME280_pressure;Samples;Min_cycle;Max_cycle;Signal;HPM_P1;HPM_P2
2022/12/30 07:54:48;;;;;;;1.65;0.85;;;;;;;4.29;95.48;96520.03;2116323;27;20563;-49
2022/12/30 07:55:50;;;;;;;1.98;0.98;;;;;;;4.57;93.18;96522.84;2100047;28;20218;-49
2022/12/30 07:58:08;;;;;;;2.58;0.80;;;;;;;5.02;90.36;96519.22;2090220;28;20889;-49
2022/12/30 08:07:27;;;;;;;1.92;0.90;;;;;;;5.24;86.73;96519.53;2083942;28;20553;-48
2022/12/30 08:09:48;;;;;;;2.47;1.15;;;;;;;5.47;86.34;96515.50;2100252;27;20570;-48
2022/12/30 08:10:57;;;;;;;5.20;1.23;;;;;;;5.67;85.80;96520.16;2084000;28;20282;-48
2022/12/30 08:13:04;;;;;;;3.40;1.30;;;;;;;5.60;84.80;96519.47;2085649;28;20578;-48
2022/12/30 08:20:33;;;;;;;3.50;1.10;;;;;;;5.61;85.25;96515.13;2082422;28;20566;-51
2022/12/30 08:21:34;;;;;;;2.28;0.80;;;;;;;6.04;84.03;96509.66;2078916;28;20212;-51
2022/12/30 08:22:37;;;;;;;1.20;0.70;;;;;;;6.26;83.33;96500.38;2082996;28;20196;-51
2022/12/30 08:23:39;;;;;;;2.67;1.27;;;;;;;6.52;82.47;96495.25;2082015;28;20196;-51
2022/12/30 08:24:40;;;;;;;3.88;1.17;;;;;;;6.79;80.56;96502.22;2081377;28;20235;-50
2022/12/30 08:25:41;;;;;;;3.90;1.10;;;;;;;6.64;81.25;96501.81;2078108;28;20268;-51
2022/12/30 08:26:43;;;;;;;2.75;0.85;;;;;;;6.62;80.41;96485.44;2080630;28;20208;-51
2022/12/30 08:27:44;;;;;;;2.13;1.10;;;;;;;6.62;81.13;96498.41;2078976;28;20204;-51
2022/12/30 08:28:46;;;;;;;1.50;1.00;;;;;;;6.75;79.70;96506.66;2078994;28;20204;-51
2022/12/30 08:29:48;;;;;;;2.80;1.00;;;;;;;6.46;80.95;96504.97;2080976;28;20201;-51
2022/12/30 08:30:49;;;;;;;1.90;0.90;;;;;;;6.52;80.70;96499.59;2080275;28;20224;-51
2022/12/30 08:31:50;;;;;;;1.92;1.10;;;;;;;6.53;80.51;96509.06;2083595;28;20216;-51
2022/12/30 08:33:59;;;;;;;5.35;1.80;;;;;;;6.32;81.49;96501.06;2101929;27;20568;-50
2022/12/30 08:35:01;;;;;;;2.88;1.55;;;;;;;6.35;80.96;96497.53;2097321;27;20211;-50
2022/12/30 08:36:04;;;;;;;3.72;1.00;;;;;;;5.99;83.23;96505.47;2083588;28;20193;-51
2022/12/30 08:37:06;;;;;;;3.65;1.20;;;;;;;6.64;81.90;96487.97;2083648;28;20201;-50
2022/12/30 08:38:07;;;;;;;2.40;1.00;;;;;;;5.80;82.72;96486.97;2082712;28;20220;-50
2022/12/30 08:39:09;;;;;;;3.95;1.10;;;;;;;6.09;83.50;96500.88;2082078;28;20205;-50
2022/12/30 08:40:11;;;;;;;2.83;0.93;;;;;;;6.29;83.43;96498.53;2083287;28;20196;-50
2022/12/30 08:41:20;;;;;;;1.60;1.00;;;;;;;6.30;82.36;96491.63;2086982;28;20197;-50
2022/12/30 08:42:22;;;;;;;2.08;1.05;;;;;;;6.47;81.46;96481.56;2088567;28;20196;-50
2022/12/30 08:43:23;;;;;;;2.42;1.08;;;;;;;7.00;80.39;96490.28;2091701;28;20838;-50
2022/12/30 08:44:25;;;;;;;2.55;1.13;;;;;;;7.43;78.71;96495.81;2091994;28;20214;-50
2022/12/30 08:45:27;;;;;;;1.63;1.10;;;;;;;7.27;77.67;96479.88;2089999;28;20220;-50
2022/12/30 08:46:29;;;;;;;2.20;1.10;;;;;;;7.37;78.29;96477.81;2090502;28;20228;-50
2022/12/30 08:47:33;;;;;;;2.28;1.20;;;;;;;7.24;77.87;96483.44;2090137;28;20633;-50
2022/12/30 08:48:34;;;;;;;1.73;1.00;;;;;;;6.89;80.27;96477.66;2090694;28;20199;-50
2022/12/30 08:49:36;;;;;;;1.52;0.90;;;;;;;7.45;79.02;96474.06;2091431;28;20231;-50
2022/12/30 08:50:37;;;;;;;5.25;1.30;;;;;;;7.88;76.79;96469.06;2089321;28;20220;-50
2022/12/30 08:51:39;;;;;;;2.70;1.05;;;;;;;7.48;77.22;96466.16;2091158;28;20193;-50
2022/12/30 08:52:40;;;;;;;1.80;0.88;;;;;;;8.25;75.66;96472.91;2088254;28;20196;-55
2022/12/30 08:53:42;;;;;;;1.70;0.90;;;;;;;7.92;75.82;96469.78;2090364;28;20247;-50
2022/12/30 08:54:44;;;;;;;3.65;1.00;;;;;;;7.48;77.13;96473.94;2090158;28;20218;-50
2022/12/30 08:55:45;;;;;;;1.75;0.93;;;;;;;7.74;76.78;96466.97;2089235;28;20231;-50
2022/12/30 08:56:48;;;;;;;2.75;0.80;;;;;;;8.03;75.73;96459.00;2089107;28;20242;-51
2022/12/30 08:57:50;;;;;;;7.32;1.17;;;;;;;7.90;75.85;96471.59;2086832;28;20234;-51
2022/12/30 08:58:51;;;;;;;1.98;0.95;;;;;;;7.82;75.70;96477.94;2089865;28;20207;-50
2022/12/30 08:59:53;;;;;;;1.25;0.80;;;;;;;7.97;75.60;96466.13;2088994;28;20204;-50
2022/12/30 09:00:54;;;;;;;2.70;1.00;;;;;;;7.88;76.42;96479.47;2089571;28;20239;-51
2022/12/30 09:01:56;;;;;;;4.35;1.00;;;;;;;7.61;76.89;96478.72;2090890;28;20211;-50
2022/12/30 09:02:58;;;;;;;3.25;1.00;;;;;;;7.95;76.42;96474.91;2102474;28;20195;-51
2022/12/30 09:04:00;;;;;;;1.95;0.90;;;;;;;7.25;77.88;96471.28;2090816;28;20203;-51
2022/12/30 09:05:02;;;;;;;1.85;1.27;;;;;;;7.05;79.00;96477.16;2086508;28;20224;-52
2022/12/30 09:06:05;;;;;;;8.20;1.10;;;;;;;7.13;79.14;96485.53;2089897;28;20219;-50
2022/12/30 09:07:06;;;;;;;1.80;0.80;;;;;;;7.75;77.63;96466.06;2090317;28;20679;-50
2022/12/30 09:08:28;;;;;;;3.08;1.00;;;;;;;8.29;75.07;96455.41;2089071;28;20246;-50
2022/12/30 09:09:30;;;;;;;5.35;1.30;;;;;;;7.89;76.55;96465.56;2087647;28;20196;-51
2022/12/30 09:10:31;;;;;;;2.58;0.90;;;;;;;7.76;77.37;96465.16;2089217;28;20224;-50
2022/12/30 09:11:36;;;;;;;2.20;1.00;;;;;;;7.88;76.95;96460.41;2087934;28;20201;-50
2022/12/30 09:12:38;;;;;;;2.45;1.10;;;;;;;7.70;77.13;96474.94;2088686;28;20204;-50
2022/12/30 09:13:40;;;;;;;1.73;0.90;;;;;;;8.01;76.22;96472.03;2091063;28;20297;-50
2022/12/30 09:14:41;;;;;;;2.65;0.90;;;;;;;8.20;75.33;96459.19;2089525;28;20204;-50
2022/12/30 09:15:43;;;;;;;2.33;0.80;;;;;;;8.30;75.72;96475.31;2085846;28;20837;-51
2022/12/30 09:16:44;;;;;;;5.10;1.08;;;;;;;7.98;76.04;96474.78;2087971;28;20691;-51
2022/12/30 09:17:46;;;;;;;2.10;1.10;;;;;;;7.28;78.03;96473.78;2089883;28;20283;-52
2022/12/30 09:18:48;;;;;;;2.70;1.00;;;;;;;7.11;78.30;96475.22;2086907;28;20208;-52
2022/12/30 09:19:49;;;;;;;2.25;1.20;;;;;;;7.28;78.80;96485.03;2089285;28;20515;-52
2022/12/30 09:20:51;;;;;;;2.20;1.10;;;;;;;7.31;79.01;96482.34;2085906;28;20223;-52
2022/12/30 09:21:52;;;;;;;1.95;0.90;;;;;;;7.59;78.79;96496.09;2097153;28;20196;-51
2022/12/30 09:22:54;;;;;;;2.20;1.25;;;;;;;7.85;77.48;96489.97;2097406;28;20203;-50
2022/12/30 09:23:55;;;;;;;3.40;1.08;;;;;;;8.20;77.05;96477.41;2088462;28;20188;-50
2022/12/30 09:24:56;;;;;;;1.77;1.08;;;;;;;7.54;78.00;96475.47;2087667;28;20200;-50
2022/12/30 09:25:59;;;;;;;2.25;1.20;;;;;;;7.72;78.36;96483.50;2091333;28;20238;-50
2022/12/30 09:27:00;;;;;;;2.53;1.00;;;;;;;7.63;78.13;96479.50;2086662;28;20204;-50
2022/12/30 09:28:02;;;;;;;3.42;1.10;;;;;;;7.11;79.30;96482.13;2087413;28;20197;-50
2022/12/30 09:29:03;;;;;;;3.50;1.23;;;;;;;7.53;78.25;96473.78;2089669;28;20204;-50
2022/12/30 09:30:06;;;;;;;3.40;1.02;;;;;;;7.94;77.77;96479.22;2086163;28;20198;-51
2022/12/30 09:31:08;;;;;;;1.85;0.90;;;;;;;8.37;75.87;96471.56;2091787;28;20196;-50
2022/12/30 09:32:09;;;;;;;2.47;1.08;;;;;;;8.07;75.96;96471.81;2090993;28;20230;-50
2022/12/30 09:33:11;;;;;;;1.90;0.95;;;;;;;7.36;77.90;96463.97;2105055;28;20681;-51
2022/12/30 09:34:12;;;;;;;2.65;1.00;;;;;;;7.77;77.70;96461.66;2104429;28;22678;-50
2022/12/30 09:35:14;;;;;;;4.53;1.40;;;;;;;7.64;77.71;96457.81;2087939;28;20215;-50
2022/12/30 09:36:15;;;;;;;1.30;0.90;;;;;;;8.29;76.75;96447.59;2091997;28;20223;-51
2022/12/30 09:37:17;;;;;;;2.50;1.08;;;;;;;8.17;76.16;96454.97;2091961;28;20196;-50
2022/12/30 09:38:19;;;;;;;6.43;1.15;;;;;;;7.72;78.28;96458.38;2090260;28;20223;-50
2022/12/30 09:39:30;;;;;;;1.48;0.80;;;;;;;7.65;77.31;96452.53;2091364;28;20241;-50
2022/12/30 09:40:50;;;;;;;2.60;0.90;;;;;;;7.47;79.27;96448.03;2088852;28;20247;-50
2022/12/30 09:43:27;;;;;;;2.13;1.05;;;;;;;7.55;78.56;96468.53;2089379;28;20644;-50
2022/12/30 09:44:54;;;;;;;1.90;1.00;;;;;;;7.27;79.38;96451.31;2089128;28;20185;-50
2022/12/30 09:46:07;;;;;;;1.40;0.98;;;;;;;7.50;79.75;96451.38;2084551;28;20224;-52
2022/12/30 09:47:17;;;;;;;1.95;1.00;;;;;;;7.45;79.54;96442.03;2084457;28;20204;-51
2022/12/30 09:48:27;;;;;;;1.88;1.08;;;;;;;7.24;79.82;96446.19;2084721;28;20192;-51
2022/12/30 09:49:42;;;;;;;3.05;0.95;;;;;;;7.46;79.86;96441.13;2084564;28;20201;-50
2022/12/30 09:50:50;;;;;;;2.67;1.40;;;;;;;7.38;79.85;96433.59;2082602;28;20220;-51
2022/12/30 09:51:59;;;;;;;8.07;0.98;;;;;;;7.43;80.32;96431.69;2083550;28;20208;-51
2022/12/30 09:53:13;;;;;;;2.53;1.30;;;;;;;7.94;78.52;96440.22;2083750;28;20193;-50
2022/12/30 09:54:17;;;;;;;1.73;0.90;;;;;;;8.00;76.86;96427.00;2083262;28;20215;-51
2022/12/30 09:55:30;;;;;;;1.60;1.20;;;;;;;7.71;77.20;96445.41;2083980;28;20297;-50
2022/12/30 09:56:35;;;;;;;2.35;1.30;;;;;;;7.02;79.13;96426.16;2085455;28;20791;-51
2022/12/30 09:57:37;;;;;;;1.88;1.35;;;;;;;7.02;80.42;96421.84;2080576;28;20699;-51
2022/12/30 09:58:39;;;;;;;4.72;1.30;;;;;;;6.79;81.20;96426.94;2080777;28;20568;-51
2022/12/30 09:59:43;;;;;;;1.88;0.73;;;;;;;7.11;80.63;96418.09;2085065;28;20203;-51
2022/12/30 10:00:46;;;;;;;5.65;1.85;;;;;;;7.11;80.55;96415.50;2082807;28;20236;-51
2022/12/30 10:01:53;;;;;;;6.32;1.30;;;;;;;7.48;79.24;96402.97;2084436;28;20209;-51
2022/12/30 10:03:12;;;;;;;5.55;1.13;;;;;;;7.31;79.62;96409.59;2083520;28;20235;-50
2022/12/30 10:04:35;;;;;;;4.70;1.25;;;;;;;7.41;79.64;96393.69;2083619;28;20193;-50
2022/12/30 10:05:39;;;;;;;3.85;1.13;;;;;;;7.25;79.87;96401.16;2083693;28;20242;-50
2022/12/30 10:07:02;;;;;;;2.13;1.20;;;;;;;6.90;81.08;96404.06;2084344;28;20200;-51
2022/12/30 10:08:55;;;;;;;2.00;1.02;;;;;;;7.47;80.03;96386.50;2084141;28;20201;-50
2022/12/30 10:10:06;;;;;;;2.83;1.08;;;;;;;7.74;78.82;96398.53;2046061;29;20250;-51
2022/12/30 10:11:29;;;;;;;4.25;1.20;;;;;;;7.64;78.81;96398.88;2078670;28;20830;-50
2022/12/30 10:12:59;;;;;;;1.70;1.00;;;;;;;7.40;80.48;96408.41;2084803;28;20197;-50
2022/12/30 10:14:31;;;;;;;1.95;1.00;;;;;;;7.31;79.76;96390.56;2084593;28;20201;-50
2022/12/30 10:15:57;;;;;;;2.50;1.00;;;;;;;7.13;80.52;96382.50;2083124;28;20615;-50
2022/12/30 10:17:28;;;;;;;2.95;1.00;;;;;;;7.20;80.34;96385.75;2085086;28;20236;-50
2022/12/30 10:18:48;;;;;;;4.75;1.35;;;;;;;7.93;78.30;96389.13;2085987;28;20223;-51
2022/12/30 10:20:30;;;;;;;3.53;1.00;;;;;;;7.83;78.20;96387.78;2083714;28;20227;-51
2022/12/30 10:21:57;;;;;;;2.85;1.05;;;;;;;8.27;78.30;96382.63;2085116;28;20247;-50
2022/12/30 10:23:11;;;;;;;2.47;1.23;;;;;;;8.26;76.88;96378.31;2080667;28;20205;-50
2022/12/30 10:24:21;;;;;;;3.05;1.17;;;;;;;8.02;76.82;96335.94;2081535;28;20267;-50
2022/12/30 10:25:25;;;;;;;4.28;1.15;;;;;;;8.20;76.97;96383.75;2084248;28;20275;-50
2022/12/30 10:26:40;;;;;;;3.05;0.95;;;;;;;7.64;78.22;96366.84;2084223;28;20208;-51
2022/12/30 10:27:47;;;;;;;2.63;1.27;;;;;;;7.31;79.15;96361.97;2084567;28;20645;-50
2022/12/30 10:28:51;;;;;;;4.43;1.10;;;;;;;7.72;78.70;96367.41;2082678;28;20598;-50
2022/12/30 10:29:54;;;;;;;1.42;0.90;;;;;;;7.74;78.45;96369.94;2086135;28;20196;-51
2022/12/30 10:30:59;;;;;;;4.10;1.02;;;;;;;7.63;78.43;96375.53;2085415;28;20228;-50
2022/12/30 10:32:14;;;;;;;1.90;1.40;;;;;;;7.14;80.63;96360.00;2084653;28;20201;-51
2022/12/30 10:33:22;;;;;;;3.60;1.23;;;;;;;7.68;79.17;96364.06;2083774;28;20200;-51
2022/12/30 10:34:29;;;;;;;4.40;1.20;;;;;;;7.72;78.63;96362.22;2082776;28;20208;-50
2022/12/30 10:35:32;;;;;;;4.80;1.60;;;;;;;7.42;79.21;96362.44;2083308;28;20898;-52
2022/12/30 10:36:43;;;;;;;2.40;0.88;;;;;;;7.93;77.83;96357.94;2080464;28;20255;-51
2022/12/30 10:37:45;;;;;;;7.47;1.00;;;;;;;7.67;78.72;96343.34;2083229;28;20196;-50
2022/12/30 10:38:46;;;;;;;2.33;1.10;;;;;;;7.90;78.34;96357.19;2080440;28;20208;-50
2022/12/30 10:39:51;;;;;;;7.20;1.00;;;;;;;7.04;80.37;96351.69;2081672;28;20212;-50
2022/12/30 10:40:59;;;;;;;2.40;0.90;;;;;;;6.88;81.24;96356.53;2082963;28;20229;-52
2022/12/30 10:42:11;;;;;;;1.75;1.23;;;;;;;6.72;81.92;96351.06;2083237;28;20193;-51
2022/12/30 10:43:19;;;;;;;1.50;0.80;;;;;;;7.14;81.08;96347.84;2082043;28;20548;-50
2022/12/30 10:44:30;;;;;;;8.25;1.75;;;;;;;7.64;80.33;96349.50;2082796;28;20197;-50
2022/12/30 10:45:31;;;;;;;2.67;1.10;;;;;;;7.55;80.15;96342.03;2083808;28;20730;-49
2022/12/30 10:46:45;;;;;;;3.05;0.90;;;;;;;7.02;80.63;96346.56;2083523;28;20348;-50
2022/12/30 10:48:03;;;;;;;2.75;1.10;;;;;;;7.21;80.46;96352.84;2084213;28;20279;-50
2022/12/30 10:49:20;;;;;;;1.58;0.90;;;;;;;7.08;81.55;96352.41;2084274;28;20201;-51
2022/12/30 10:50:40;;;;;;;2.10;1.45;;;;;;;7.62;79.71;96347.88;2080327;28;20221;-50
2022/12/30 10:51:42;;;;;;;3.22;1.45;;;;;;;7.68;78.94;96353.69;2081815;28;20743;-50
2022/12/30 10:52:45;;;;;;;3.33;1.10;;;;;;;7.64;78.60;96351.25;2084110;28;20215;-50
2022/12/30 10:53:49;;;;;;;4.22;1.23;;;;;;;7.92;77.91;96348.47;2085447;28;20193;-50
2022/12/30 10:54:50;;;;;;;2.97;1.05;;;;;;;7.60;78.12;96354.88;2083305;28;20204;-50
2022/12/30 10:56:03;;;;;;;1.60;1.00;;;;;;;7.80;78.62;96354.13;2083437;28;20683;-50
2022/12/30 10:57:04;;;;;;;1.85;1.00;;;;;;;7.79;78.26;96352.41;2079548;28;20208;-50
2022/12/30 10:58:11;;;;;;;3.03;1.20;;;;;;;7.69;78.18;96344.13;2080643;28;20196;-50
2022/12/30 10:59:16;;;;;;;9.30;1.30;;;;;;;7.58;78.27;96343.69;2083947;28;20201;-50
2022/12/30 11:00:20;;;;;;;3.05;1.15;;;;;;;7.38;79.81;96347.00;2081813;28;20197;-50
2022/12/30 11:01:29;;;;;;;6.35;0.90;;;;;;;7.58;78.88;96356.66;2084177;28;20232;-50
2022/12/30 11:02:36;;;;;;;2.40;1.00;;;;;;;7.90;78.40;96354.59;2080563;28;20208;-51
2022/12/30 11:03:44;;;;;;;5.00;1.48;;;;;;;8.12;77.93;96357.22;2083460;28;20210;-51
2022/12/30 11:04:45;;;;;;;4.65;1.20;;;;;;;7.98;78.11;96349.97;2083634;28;20228;-50
2022/12/30 11:05:47;;;;;;;6.90;1.35;;;;;;;7.82;78.17;96342.75;2083279;28;20220;-50
2022/12/30 11:06:59;;;;;;;2.45;1.17;;;;;;;7.86;78.69;96343.50;2085021;28;20200;-51
2022/12/30 11:08:03;;;;;;;4.90;1.63;;;;;;;7.68;78.29;96330.28;2084819;28;20719;-50
2022/12/30 11:09:13;;;;;;;4.93;1.33;;;;;;;7.77;78.41;96343.81;2083375;28;20650;-50
2022/12/30 11:10:35;;;;;;;1.67;0.80;;;;;;;7.75;78.28;96323.09;2082631;28;20269;-51
2022/12/30 11:15:01;;;;;;;1.00;0.73;;;;;;;7.89;78.45;96338.16;2083944;28;20209;-50
2022/12/30 11:16:04;;;;;;;3.15;1.33;;;;;;;7.98;77.84;96326.56;2099687;28;20211;-50
2022/12/30 11:17:14;;;;;;;1.20;0.85;;;;;;;8.36;77.12;96331.97;2094924;28;20705;-50
2022/12/30 11:18:17;;;;;;;2.08;0.90;;;;;;;8.29;77.32;96333.13;2084733;28;20197;-50
2022/12/30 11:19:23;;;;;;;4.95;0.85;;;;;;;7.91;77.57;96323.38;2083512;28;20201;-50
2022/12/30 11:20:34;;;;;;;3.58;0.85;;;;;;;7.90;78.18;96319.06;2083045;28;20221;-50
2022/12/30 11:21:36;;;;;;;2.17;0.95;;;;;;;8.15;77.59;96316.34;2085464;28;20258;-50
2022/12/30 11:22:45;;;;;;;2.85;0.93;;;;;;;8.48;76.17;96307.22;2084678;28;20192;-50
2022/12/30 11:23:53;;;;;;;2.78;1.17;;;;;;;7.82;78.16;96305.50;2081735;28;20197;-50
2022/12/30 11:25:04;;;;;;;1.85;1.05;;;;;;;7.90;77.77;96315.59;2082272;28;20196;-50
2022/12/30 11:26:15;;;;;;;1.98;0.90;;;;;;;8.02;78.32;96296.91;2084094;28;20232;-50
2022/12/30 11:27:33;;;;;;;5.07;1.08;;;;;;;8.17;77.78;96300.66;2084164;28;20192;-50
2022/12/30 11:28:37;;;;;;;1.40;0.70;;;;;;;8.01;78.21;96303.88;2084145;28;20208;-50
2022/12/30 11:29:39;;;;;;;1.40;0.90;;;;;;;8.00;78.80;96294.38;2083587;28;20251;-50
2022/12/30 11:30:52;;;;;;;2.20;0.90;;;;;;;8.50;77.14;96301.03;2083024;28;20211;-50
2022/12/30 11:31:54;;;;;;;1.75;0.80;;;;;;;8.41;76.31;96292.78;2078926;28;20275;-50
2022/12/30 11:32:58;;;;;;;2.50;1.10;;;;;;;7.57;78.60;96301.25;2083837;28;20197;-50
2022/12/30 11:34:03;;;;;;;1.67;1.02;;;;;;;7.52;79.95;96295.41;2081876;28;20247;-51
2022/12/30 11:35:04;;;;;;;1.30;0.90;;;;;;;8.18;77.89;96286.75;2083854;28;20274;-50
2022/12/30 11:36:31;;;;;;;2.42;1.00;;;;;;;7.84;78.90;96294.13;2084058;28;20216;-50
2022/12/30 11:37:36;;;;;;;1.63;0.80;;;;;;;7.90;79.33;96281.81;2083451;28;20212;-51
2022/12/30 11:38:39;;;;;;;2.83;1.15;;;;;;;7.47;79.55;96289.53;2082940;28;20231;-50
2022/12/30 11:39:41;;;;;;;5.60;1.08;;;;;;;7.62;80.09;96293.31;2083712;28;20678;-50
2022/12/30 11:40:42;;;;;;;2.60;0.90;;;;;;;7.49;80.33;96274.72;2082691;28;20248;-50
2022/12/30 11:41:51;;;;;;;4.50;2.17;;;;;;;7.62;80.00;96286.34;2084542;28;20204;-50
2022/12/30 11:43:10;;;;;;;6.60;1.20;;;;;;;7.83;79.70;96283.81;2085249;28;20758;-50
2022/12/30 11:44:14;;;;;;;6.40;1.17;;;;;;;7.63;79.46;96287.19;2081465;28;20201;-50
2022/12/30 11:45:18;;;;;;;3.97;1.00;;;;;;;7.45;80.80;96280.94;2082489;28;20204;-50
2022/12/30 11:46:22;;;;;;;1.50;0.80;;;;;;;7.29;81.19;96280.69;2083132;28;20261;-50
2022/12/30 11:47:24;;;;;;;3.28;0.80;;;;;;;7.48;81.18;96268.69;2084216;28;20643;-50
2022/12/30 11:48:34;;;;;;;1.40;0.88;;;;;;;7.13;82.07;96275.19;2079980;28;20192;-50
2022/12/30 11:49:57;;;;;;;1.85;0.90;;;;;;;6.84;83.22;96271.91;2081266;28;20193;-50
2022/12/30 11:51:02;;;;;;;2.05;0.93;;;;;;;7.06;82.88;96264.22;2078754;28;20235;-50
2022/12/30 11:52:03;;;;;;;4.15;1.10;;;;;;;7.10;82.97;96280.53;2083815;28;20233;-50
2022/12/30 11:53:05;;;;;;;3.78;0.90;;;;;;;7.21;83.44;96277.50;2082046;28;20809;-50
2022/12/30 11:54:19;;;;;;;1.75;0.80;;;;;;;7.06;82.61;96276.31;2083064;28;20193;-50
2022/12/30 11:55:25;;;;;;;2.40;1.00;;;;;;;6.81;83.45;96274.63;2083378;28;20231;-50
2022/12/30 11:56:27;;;;;;;1.65;1.10;;;;;;;6.81;83.92;96257.28;2082493;28;20275;-50
2022/12/30 11:57:33;;;;;;;2.85;0.90;;;;;;;6.75;84.24;96264.47;2083747;28;20201;-51
2022/12/30 11:58:38;;;;;;;4.28;0.90;;;;;;;6.56;84.91;96270.28;2084709;28;20603;-51
2022/12/30 11:59:50;;;;;;;2.05;0.95;;;;;;;6.29;85.63;96234.03;2083477;28;20205;-50
2022/12/30 12:01:00;;;;;;;3.97;1.63;;;;;;;6.57;85.00;96269.38;2084067;28;20216;-50
2022/12/30 12:02:18;;;;;;;3.85;0.98;;;;;;;6.54;85.46;96266.91;2084513;28;20224;-50
2022/12/30 12:03:21;;;;;;;6.60;1.20;;;;;;;6.52;85.73;96271.28;2083459;28;20236;-50
2022/12/30 12:04:37;;;;;;;2.45;1.00;;;;;;;6.53;84.84;96276.44;2079964;28;20279;-50
2022/12/30 12:05:42;;;;;;;4.78;1.35;;;;;;;6.51;85.01;96261.81;2080935;28;20591;-51
2022/12/30 12:06:50;;;;;;;4.18;1.00;;;;;;;6.54;85.20;96270.34;2084528;28;20197;-50
2022/12/30 12:07:59;;;;;;;2.17;1.00;;;;;;;6.45;85.82;96269.81;2082604;28;20196;-50
